Addison Township, Michigan
Current Conditions -  °F | °C
As of 6:53 PM on Monday 20 Oct 2014 (Local Time) from KD95 Reporting Station
Overcast Overcast  
Wind Chill: 53°   Ceiling: 3800
Heat Index: 53°   Visibility: 10mi
Dew Point: 47°   Wind: 0mph
Humidity: 80%   Direction: NA
Pressure: 29.81"   Gusts: NA
Location:  42.8434°N, 83.1398°W
Report Text: KD95 202253Z AUTO 00000KT 10SM SCT031 BKN038 OVC070 12/09 A2981 RMK AO2 T01190086
Loading
Personal Weather Stations






























Interactive Weather Map
Tropical Storm Tracking
New forecast layout! Learn more

10-Day Weather Forecast

Advertisements
Track Severe Weather on mobile